aviador You're here:

KPAE Decoded Metar

EVERETT in WA, USA
Report Time2018-02-17 22:53:00
UTC Time2018-02-17 23:38:55
Flight Rules vfr VFR
WindVRB at 04 kt
Visibility9999 m
Phenomena:N/A
Clouds:Broken 031 Hf
Overcast 040 Hf
Expected CloudBase > 1,200 ft AGL from Temp-Dew spread
Ceiling3,100 ft
Temp06°C (ISA -8)
Dew Point03°C (81% RH)
AAT3.1°C
QNH1001 hPa
Density Alt164 ft
Elevation591 ft
Report Wrong Elevation
Raw Report
METAR KPAE 172253Z VRB04KT 10SM BKN031 OVC040 06/03 A2957 RMK AO2 RAE2157B20E47
SLP015 P0001 T00610033=

Extra information for KPAE:More info

Metar Taf Metar & Taf Last 4 Metars F.Rules Stats Wind Profile Meteogram Temp Stats Airport Information Weather charts Add Link Nearby VenuesMetar ALERT Operation Metar Decoded Social comments

AIRNAV info for KPAE